Time;durP1;ratioP1;P1;durP2;ratioP2;P2;SDS_P1;SDS_P2;PMS_P1;PMS_P2;Temp;Humidity;BMP_temperature;BMP_pressure;BME280_temperature;BME280_humidity;BME280_pressure;Samples;Min_cycle;Max_cycle;Signal;HPM_P1;HPM_P2
2024/02/01 00:00:08;;;;;;;38.45;5.10;;;;;;;;;;5073409;28;20025;-71
2024/02/01 00:02:54;;;;;;;28.25;6.90;;;;;;;;;;5056078;28;20061;-71
2024/02/01 00:05:39;;;;;;;30.65;5.68;;;;;;;;;;5054092;28;20056;-71
2024/02/01 00:08:25;;;;;;;22.48;4.95;;;;;;;;;;5052983;28;20063;-71
2024/02/01 00:11:11;;;;;;;24.58;4.97;;;;;;;;;;5052237;28;20021;-71
2024/02/01 00:13:56;;;;;;;16.80;6.22;;;;;;;;;;5061396;28;20107;-71
2024/02/01 00:16:42;;;;;;;17.13;4.47;;;;;;;;;;5051434;28;20017;-71
2024/02/01 00:19:27;;;;;;;35.55;6.03;;;;;;;;;;5052096;28;20029;-71
2024/02/01 00:22:14;;;;;;;14.25;3.90;;;;;;;;;;5052477;28;20025;-71
2024/02/01 00:24:59;;;;;;;23.15;5.05;;;;;;;;;;5052077;28;20056;-71
2024/02/01 00:27:45;;;;;;;21.08;4.97;;;;;;;;;;5051624;28;20021;-71
2024/02/01 00:30:31;;;;;;;20.15;3.67;;;;;;;;;;5052480;28;20025;-72
2024/02/01 00:33:17;;;;;;;15.38;3.22;;;;;;;;;;5059011;28;20060;-71
2024/02/01 00:36:03;;;;;;;16.00;3.15;;;;;;;;;;5065368;28;20024;-71
2024/02/01 00:38:48;;;;;;;17.15;4.60;;;;;;;;;;5064977;28;20053;-71
2024/02/01 00:41:34;;;;;;;15.60;3.47;;;;;;;;;;5052388;28;20017;-71
2024/02/01 00:44:20;;;;;;;13.43;4.47;;;;;;;;;;5051565;28;20095;-71
2024/02/01 00:47:07;;;;;;;8.32;2.97;;;;;;;;;;5051842;28;20025;-71
2024/02/01 00:49:52;;;;;;;21.35;3.60;;;;;;;;;;5050713;28;20041;-71
2024/02/01 00:52:38;;;;;;;13.27;3.42;;;;;;;;;;5052332;28;20017;-71
2024/02/01 00:55:24;;;;;;;19.65;4.45;;;;;;;;;;5052034;28;20517;-71
2024/02/01 00:58:09;;;;;;;18.77;3.55;;;;;;;;;;5065388;28;20029;-71
2024/02/01 01:00:57;;;;;;;16.83;3.05;;;;;;;;;;5052638;28;20029;-71
2024/02/01 01:03:43;;;;;;;15.45;3.60;;;;;;;;;;5066595;28;20021;-71
2024/02/01 01:06:29;;;;;;;7.90;2.72;;;;;;;;;;5056042;28;20052;-71
2024/02/01 01:09:14;;;;;;;27.40;4.88;;;;;;;;;;5056869;28;20104;-71
2024/02/01 01:12:00;;;;;;;18.92;3.60;;;;;;;;;;5055379;28;20494;-71
2024/02/01 01:14:46;;;;;;;16.27;3.47;;;;;;;;;;5056599;28;20040;-71
2024/02/01 01:17:31;;;;;;;18.00;3.58;;;;;;;;;;5055994;28;20025;-71
2024/02/01 01:20:17;;;;;;;20.15;5.10;;;;;;;;;;5056148;28;20082;-71
2024/02/01 01:23:03;;;;;;;14.55;3.45;;;;;;;;;;5054154;28;20405;-71
2024/02/01 01:25:48;;;;;;;8.80;2.95;;;;;;;;;;5055153;28;20024;-71
2024/02/01 01:28:34;;;;;;;12.98;4.10;;;;;;;;;;5057827;28;20025;-71
2024/02/01 01:31:22;;;;;;;19.60;4.13;;;;;;;;;;5064801;28;20032;-71
2024/02/01 01:34:07;;;;;;;22.70;4.75;;;;;;;;;;5070988;28;20032;-71
2024/02/01 01:36:53;;;;;;;24.60;3.58;;;;;;;;;;5060175;28;20037;-72
2024/02/01 01:39:39;;;;;;;12.00;2.40;;;;;;;;;;5065989;28;20029;-71
2024/02/01 01:42:24;;;;;;;15.85;3.28;;;;;;;;;;5062938;28;20089;-71
2024/02/01 01:45:10;;;;;;;25.77;4.15;;;;;;;;;;5074801;28;20017;-71
2024/02/01 01:47:56;;;;;;;14.20;4.57;;;;;;;;;;5074091;28;20071;-71
2024/02/01 01:50:41;;;;;;;18.20;4.18;;;;;;;;;;5073738;28;20482;-72
2024/02/01 01:53:28;;;;;;;19.33;3.17;;;;;;;;;;5064990;28;20147;-71
2024/02/01 01:56:15;;;;;;;15.80;2.60;;;;;;;;;;5053693;28;20822;-71
2024/02/01 01:59:02;;;;;;;13.38;3.30;;;;;;;;;;5054644;28;20029;-71
2024/02/01 02:01:48;;;;;;;18.17;3.17;;;;;;;;;;5057180;28;20017;-71
2024/02/01 02:04:35;;;;;;;23.13;4.18;;;;;;;;;;5066607;28;20033;-71
2024/02/01 02:07:20;;;;;;;30.25;4.38;;;;;;;;;;5054572;28;20017;-71
2024/02/01 02:10:07;;;;;;;17.15;4.10;;;;;;;;;;5054893;28;20064;-71
2024/02/01 02:12:52;;;;;;;30.55;3.95;;;;;;;;;;5054214;28;20032;-70
2024/02/01 02:15:38;;;;;;;23.92;3.90;;;;;;;;;;5060027;28;20017;-69
2024/02/01 02:19:10;;;;;;;16.17;3.90;;;;;;;;;;5067600;28;20063;-69
2024/02/01 02:21:57;;;;;;;32.00;3.17;;;;;;;;;;5074626;28;20029;-71
2024/02/01 02:24:43;;;;;;;12.18;3.25;;;;;;;;;;5074145;28;20016;-71
2024/02/01 02:27:28;;;;;;;21.73;3.97;;;;;;;;;;5074455;28;20027;-71
2024/02/01 02:30:14;;;;;;;14.68;3.47;;;;;;;;;;5074831;28;20020;-71
2024/02/01 02:33:00;;;;;;;44.28;4.97;;;;;;;;;;5074504;28;20032;-71
2024/02/01 02:35:46;;;;;;;30.65;4.47;;;;;;;;;;5073087;28;20020;-71
2024/02/01 02:38:32;;;;;;;19.95;3.45;;;;;;;;;;5074148;28;20056;-71
2024/02/01 02:41:17;;;;;;;18.73;3.67;;;;;;;;;;5074609;28;20023;-71
2024/02/01 02:44:06;;;;;;;24.58;4.45;;;;;;;;;;5073599;28;20502;-71
2024/02/01 02:46:52;;;;;;;13.27;3.22;;;;;;;;;;5074398;28;20081;-71
2024/02/01 02:49:38;;;;;;;19.67;2.90;;;;;;;;;;5073964;28;20025;-71
2024/02/01 02:52:23;;;;;;;9.05;2.75;;;;;;;;;;5072675;28;20028;-71
2024/02/01 02:55:09;;;;;;;22.65;4.05;;;;;;;;;;5074031;28;20383;-71
2024/02/01 02:57:55;;;;;;;24.15;3.92;;;;;;;;;;5073192;28;20052;-71
2024/02/01 03:00:40;;;;;;;9.57;2.25;;;;;;;;;;5073138;28;20025;-71
2024/02/01 03:03:26;;;;;;;23.52;4.57;;;;;;;;;;5073163;28;20421;-71
2024/02/01 03:06:12;;;;;;;6.72;2.45;;;;;;;;;;5073474;28;20048;-71
2024/02/01 03:08:57;;;;;;;18.05;3.63;;;;;;;;;;5073966;28;20021;-71
2024/02/01 03:11:43;;;;;;;19.15;3.38;;;;;;;;;;5073007;28;20028;-71
2024/02/01 03:14:29;;;;;;;22.52;3.08;;;;;;;;;;5073536;28;20023;-71
2024/02/01 03:17:17;;;;;;;16.17;3.85;;;;;;;;;;5072924;28;20099;-71
2024/02/01 03:20:17;;;;;;;27.25;3.55;;;;;;;;;;5072247;28;20501;-71
2024/02/01 03:23:05;;;;;;;20.30;3.17;;;;;;;;;;5059124;28;20059;-71
2024/02/01 03:25:51;;;;;;;17.45;4.43;;;;;;;;;;5073957;28;20445;-71
2024/02/01 03:28:44;;;;;;;16.08;4.07;;;;;;;;;;5072632;28;20099;-71
2024/02/01 03:31:35;;;;;;;20.45;4.13;;;;;;;;;;5073224;28;20031;-71
2024/02/01 03:34:21;;;;;;;22.33;3.40;;;;;;;;;;5072324;28;20024;-71
2024/02/01 03:37:07;;;;;;;30.27;3.60;;;;;;;;;;5073541;28;20021;-71
2024/02/01 03:39:52;;;;;;;12.45;3.03;;;;;;;;;;5073202;28;20032;-71
2024/02/01 03:42:38;;;;;;;14.32;2.63;;;;;;;;;;5072130;28;20541;-71
2024/02/01 03:45:24;;;;;;;26.10;3.85;;;;;;;;;;5072671;28;20031;-71
2024/02/01 03:48:09;;;;;;;18.75;4.50;;;;;;;;;;5073470;28;20393;-71
2024/02/01 03:50:55;;;;;;;13.50;3.03;;;;;;;;;;5060523;28;20037;-71
2024/02/01 03:53:41;;;;;;;23.38;4.10;;;;;;;;;;5052551;28;20025;-71
2024/02/01 03:56:26;;;;;;;18.85;3.67;;;;;;;;;;5053106;28;20055;-71
2024/02/01 03:59:13;;;;;;;28.05;4.97;;;;;;;;;;5072916;28;20074;-71
2024/02/01 04:02:04;;;;;;;14.88;3.25;;;;;;;;;;5071015;28;20029;-71
2024/02/01 04:04:50;;;;;;;16.58;3.22;;;;;;;;;;5071061;28;20103;-71
2024/02/01 04:07:39;;;;;;;20.33;3.33;;;;;;;;;;5072678;28;20016;-71
2024/02/01 04:10:25;;;;;;;14.70;3.53;;;;;;;;;;5071903;28;20032;-71
2024/02/01 04:13:11;;;;;;;13.55;4.47;;;;;;;;;;5069444;28;20031;-71
2024/02/01 04:15:56;;;;;;;24.42;3.65;;;;;;;;;;5065092;28;20060;-71
2024/02/01 04:18:42;;;;;;;33.58;4.20;;;;;;;;;;5052260;28;20079;-71
2024/02/01 04:21:28;;;;;;;21.98;3.00;;;;;;;;;;5052152;28;20425;-71
2024/02/01 04:24:13;;;;;;;19.95;3.88;;;;;;;;;;5064817;28;20028;-71
2024/02/01 04:27:00;;;;;;;9.52;2.58;;;;;;;;;;5072840;28;20021;-71
2024/02/01 04:29:46;;;;;;;12.57;2.60;;;;;;;;;;5071189;28;20024;-68
2024/02/01 04:32:33;;;;;;;14.38;4.00;;;;;;;;;;5072585;28;20389;-70
2024/02/01 04:35:18;;;;;;;25.50;3.75;;;;;;;;;;5072004;28;20090;-71
2024/02/01 04:38:04;;;;;;;25.83;4.07;;;;;;;;;;5070713;28;20036;-71
2024/02/01 04:40:49;;;;;;;27.23;4.97;;;;;;;;;;5056091;28;20040;-70
2024/02/01 04:43:36;;;;;;;14.18;3.13;;;;;;;;;;5055218;28;20025;-70
2024/02/01 04:46:24;;;;;;;21.23;3.47;;;;;;;;;;5075689;28;20025;-71
2024/02/01 04:49:13;;;;;;;15.68;3.65;;;;;;;;;;5074301;28;20093;-69
2024/02/01 04:51:58;;;;;;;27.77;4.97;;;;;;;;;;5055006;28;20083;-68
2024/02/01 04:54:44;;;;;;;16.63;4.05;;;;;;;;;;5055818;28;20110;-68
2024/02/01 04:57:30;;;;;;;18.45;4.25;;;;;;;;;;5055528;28;20182;-71
2024/02/01 05:00:17;;;;;;;17.20;2.92;;;;;;;;;;5068495;28;20032;-71
2024/02/01 05:03:03;;;;;;;20.48;3.00;;;;;;;;;;5055216;28;20091;-71
2024/02/01 05:05:49;;;;;;;28.77;3.85;;;;;;;;;;5056157;28;20029;-71
2024/02/01 05:08:35;;;;;;;11.88;3.65;;;;;;;;;;5061584;28;20036;-71
2024/02/01 05:11:21;;;;;;;18.27;6.50;;;;;;;;;;5055593;28;20068;-71
2024/02/01 05:14:10;;;;;;;9.38;2.75;;;;;;;;;;5069771;28;20025;-71
2024/02/01 05:16:56;;;;;;;27.45;5.22;;;;;;;;;;5054090;28;20558;-70
2024/02/01 05:19:42;;;;;;;15.02;3.88;;;;;;;;;;5065565;28;20485;-71
2024/02/01 05:22:28;;;;;;;29.15;3.65;;;;;;;;;;5075598;28;20025;-71
2024/02/01 05:25:18;;;;;;;18.58;4.80;;;;;;;;;;5075354;28;20482;-71
2024/02/01 05:28:09;;;;;;;12.63;3.00;;;;;;;;;;5073412;28;20027;-70
2024/02/01 05:30:55;;;;;;;18.45;3.65;;;;;;;;;;5054761;28;20510;-71
2024/02/01 05:33:40;;;;;;;31.23;4.43;;;;;;;;;;5065273;28;20024;-71
2024/02/01 05:36:26;;;;;;;19.35;4.95;;;;;;;;;;5074029;28;20390;-71
2024/02/01 05:39:24;;;;;;;16.70;4.05;;;;;;;;;;5074968;28;20032;-71
2024/02/01 05:42:13;;;;;;;19.65;4.15;;;;;;;;;;5072937;28;20029;-71
2024/02/01 05:44:58;;;;;;;15.82;3.83;;;;;;;;;;5073775;28;20024;-69
2024/02/01 05:47:44;;;;;;;14.75;4.88;;;;;;;;;;5075400;28;20413;-68
2024/02/01 05:50:31;;;;;;;32.40;4.72;;;;;;;;;;5071551;28;20062;-71
2024/02/01 05:53:17;;;;;;;31.98;5.43;;;;;;;;;;5075050;28;20065;-71
2024/02/01 05:56:03;;;;;;;13.05;5.45;;;;;;;;;;5074690;28;20016;-71
2024/02/01 05:58:49;;;;;;;14.90;3.92;;;;;;;;;;5067588;28;20033;-71
2024/02/01 06:01:36;;;;;;;29.00;6.03;;;;;;;;;;5069486;28;20067;-71
2024/02/01 06:04:22;;;;;;;19.05;4.22;;;;;;;;;;5073120;28;20031;-71
2024/02/01 06:07:07;;;;;;;32.20;5.53;;;;;;;;;;5074875;28;20494;-71
2024/02/01 06:09:53;;;;;;;21.60;5.75;;;;;;;;;;5066961;28;20478;-71
2024/02/01 06:12:38;;;;;;;20.55;5.35;;;;;;;;;;5054160;28;20082;-71
2024/02/01 06:15:24;;;;;;;17.48;3.88;;;;;;;;;;5072937;28;20025;-71
2024/02/01 06:18:10;;;;;;;16.17;3.67;;;;;;;;;;5074166;28;20486;-71
2024/02/01 06:20:55;;;;;;;34.60;7.07;;;;;;;;;;5059110;28;20386;-71
2024/02/01 06:23:42;;;;;;;31.02;4.20;;;;;;;;;;5074110;28;20043;-71
2024/02/01 06:26:28;;;;;;;29.00;4.75;;;;;;;;;;5072140;28;20021;-71
2024/02/01 06:29:15;;;;;;;24.05;5.05;;;;;;;;;;5073884;28;20052;-71
2024/02/01 06:32:00;;;;;;;31.60;5.97;;;;;;;;;;5069078;28;20025;-71
2024/02/01 06:34:53;;;;;;;36.13;5.68;;;;;;;;;;5054345;28;20057;-71
2024/02/01 06:37:42;;;;;;;19.80;3.90;;;;;;;;;;5059029;28;20016;-71
2024/02/01 06:41:17;;;;;;;20.63;5.13;;;;;;;;;;5053002;28;20025;-71
2024/02/01 06:44:01;;;;;;;28.80;5.00;;;;;;;;;;5053927;28;20029;-71
2024/02/01 06:50:00;;;;;;;31.08;4.78;;;;;;;;;;5064346;28;20105;-69
2024/02/01 06:52:49;;;;;;;38.08;5.65;;;;;;;;;;5072214;28;20031;-71
2024/02/01 06:55:44;;;;;;;22.67;5.03;;;;;;;;;;5073339;28;20028;-71
2024/02/01 06:58:47;;;;;;;15.23;3.63;;;;;;;;;;5072646;28;20112;-71
2024/02/01 07:01:51;;;;;;;28.67;5.95;;;;;;;;;;5072495;28;20021;-71
2024/02/01 07:04:50;;;;;;;19.77;4.97;;;;;;;;;;5072639;28;20371;-71
2024/02/01 07:07:42;;;;;;;37.33;3.83;;;;;;;;;;5071570;28;20028;-71
2024/02/01 07:10:43;;;;;;;28.30;4.68;;;;;;;;;;5073092;28;20039;-71
2024/02/01 07:13:45;;;;;;;32.60;4.85;;;;;;;;;;5071904;28;20025;-71
2024/02/01 07:16:53;;;;;;;18.15;3.42;;;;;;;;;;5072089;28;20054;-71
2024/02/01 07:19:52;;;;;;;19.95;4.47;;;;;;;;;;5072435;28;20043;-72
2024/02/01 07:23:00;;;;;;;15.88;4.18;;;;;;;;;;5067726;28;20025;-71
2024/02/01 07:26:06;;;;;;;19.25;3.15;;;;;;;;;;5050972;28;20111;-71
2024/02/01 07:59:50;;;;;;;23.17;3.75;;;;;;;;;;5057925;28;20033;-72
2024/02/01 08:02:49;;;;;;;26.25;4.07;;;;;;;;;;5051115;28;20043;-71
2024/02/01 08:08:43;;;;;;;24.50;3.67;;;;;;;;;;5071790;28;20028;-71
2024/02/01 08:11:29;;;;;;;37.55;5.18;;;;;;;;;;5071387;28;20461;-71
2024/02/01 08:14:14;;;;;;;13.82;3.70;;;;;;;;;;5075479;28;20022;-72
2024/02/01 08:17:04;;;;;;;16.17;3.40;;;;;;;;;;5075024;28;20028;-71
2024/02/01 08:19:50;;;;;;;21.83;4.80;;;;;;;;;;5065044;28;20025;-71
2024/02/01 08:22:38;;;;;;;29.83;5.28;;;;;;;;;;5056718;28;20498;-71
2024/02/01 08:25:26;;;;;;;23.02;4.07;;;;;;;;;;5063120;28;20028;-71
2024/02/01 08:28:15;;;;;;;21.40;3.63;;;;;;;;;;5075249;28;20027;-72
2024/02/01 08:31:08;;;;;;;19.83;3.67;;;;;;;;;;5073297;28;20024;-72
2024/02/01 08:33:53;;;;;;;19.08;3.85;;;;;;;;;;5056277;28;20093;-71
2024/02/01 08:36:41;;;;;;;24.70;4.68;;;;;;;;;;5067302;28;20029;-71
2024/02/01 08:39:26;;;;;;;24.65;4.55;;;;;;;;;;5061833;28;20029;-72
2024/02/01 08:42:12;;;;;;;24.23;4.03;;;;;;;;;;5055744;28;20039;-72
2024/02/01 08:44:59;;;;;;;32.75;5.13;;;;;;;;;;5073923;28;20032;-72
2024/02/01 08:47:44;;;;;;;30.25;5.53;;;;;;;;;;5075945;28;20397;-72
2024/02/01 08:50:34;;;;;;;29.92;4.38;;;;;;;;;;5076364;28;20089;-72
2024/02/01 08:53:22;;;;;;;30.17;4.40;;;;;;;;;;5073764;28;20029;-72
2024/02/01 08:56:07;;;;;;;26.30;3.80;;;;;;;;;;5075645;28;20017;-71
2024/02/01 08:58:53;;;;;;;17.85;4.28;;;;;;;;;;5075382;28;20169;-71
2024/02/01 09:01:38;;;;;;;17.48;4.32;;;;;;;;;;5069904;28;20086;-72
2024/02/01 09:04:24;;;;;;;25.55;4.70;;;;;;;;;;5054927;28;20025;-72
2024/02/01 09:07:10;;;;;;;27.75;4.13;;;;;;;;;;5055100;28;20111;-72
2024/02/01 09:09:56;;;;;;;16.90;4.38;;;;;;;;;;5056198;28;20564;-72
2024/02/01 09:12:45;;;;;;;34.33;6.18;;;;;;;;;;5056199;28;20094;-71
2024/02/01 09:15:31;;;;;;;16.13;3.38;;;;;;;;;;5066009;28;20029;-72
2024/02/01 09:18:16;;;;;;;31.65;5.97;;;;;;;;;;5054420;28;20086;-71
2024/02/01 09:21:02;;;;;;;26.23;4.25;;;;;;;;;;5054654;28;20048;-72
2024/02/01 09:23:48;;;;;;;30.75;4.78;;;;;;;;;;5055300;28;20028;-72
2024/02/01 09:26:34;;;;;;;20.85;4.35;;;;;;;;;;5071068;28;20021;-72
2024/02/01 09:29:19;;;;;;;30.33;4.88;;;;;;;;;;5074631;28;20016;-71
2024/02/01 09:32:06;;;;;;;30.55;4.05;;;;;;;;;;5072835;28;20036;-71
2024/02/01 09:34:52;;;;;;;23.40;3.83;;;;;;;;;;5065502;28;20029;-72
2024/02/01 09:37:38;;;;;;;30.70;6.45;;;;;;;;;;5067117;28;20086;-72
2024/02/01 09:40:24;;;;;;;16.83;3.95;;;;;;;;;;5072236;28;20350;-71
2024/02/01 09:43:23;;;;;;;21.83;3.80;;;;;;;;;;5073053;28;20033;-72
2024/02/01 09:46:09;;;;;;;30.67;5.97;;;;;;;;;;5072716;28;20033;-71
2024/02/01 09:48:56;;;;;;;27.88;4.55;;;;;;;;;;5062669;28;20523;-71
2024/02/01 09:51:41;;;;;;;17.60;4.93;;;;;;;;;;5065565;28;20021;-71
2024/02/01 09:54:27;;;;;;;28.02;5.70;;;;;;;;;;5071810;28;20027;-72
2024/02/01 09:57:16;;;;;;;27.48;5.43;;;;;;;;;;5071304;28;20508;-72
2024/02/01 10:00:04;;;;;;;17.73;3.60;;;;;;;;;;5059813;28;20467;-71
2024/02/01 10:02:52;;;;;;;23.02;4.70;;;;;;;;;;5073821;28;20547;-72
2024/02/01 10:05:39;;;;;;;27.92;5.43;;;;;;;;;;5069492;28;20028;-72
2024/02/01 10:09:56;;;;;;;25.60;4.00;;;;;;;;;;5097380;27;20333;-72
2024/02/01 10:14:35;;;;;;;22.45;4.82;;;;;;;;;;5111636;27;20397;-72
2024/02/01 10:17:20;;;;;;;28.05;5.15;;;;;;;;;;5121854;28;20051;-71
2024/02/01 10:20:58;;;;;;;33.42;5.60;;;;;;;;;;5111658;27;20332;-71
2024/02/01 10:23:43;;;;;;;28.05;5.40;;;;;;;;;;5113721;28;20092;-71
2024/02/01 10:26:30;;;;;;;16.75;4.07;;;;;;;;;;5109908;28;20023;-71
2024/02/01 10:29:17;;;;;;;27.35;4.30;;;;;;;;;;5110607;28;20073;-71
2024/02/01 10:32:05;;;;;;;23.60;4.32;;;;;;;;;;5085628;28;20058;-70
2024/02/01 10:34:53;;;;;;;21.75;5.15;;;;;;;;;;5097383;28;20408;-70
2024/02/01 10:37:39;;;;;;;23.13;4.93;;;;;;;;;;5097889;28;20049;-71
2024/02/01 10:40:39;;;;;;;27.15;6.43;;;;;;;;;;5091245;28;20073;-71
2024/02/01 10:43:28;;;;;;;26.13;5.05;;;;;;;;;;5076256;28;20078;-71
2024/02/01 10:46:27;;;;;;;26.23;5.25;;;;;;;;;;5101280;28;20039;-71
2024/02/01 10:49:17;;;;;;;41.50;6.15;;;;;;;;;;5089123;28;20033;-71
2024/02/01 10:52:03;;;;;;;24.88;4.40;;;;;;;;;;5088004;28;20539;-71
2024/02/01 10:54:49;;;;;;;25.02;4.63;;;;;;;;;;5103994;28;20032;-71
2024/02/01 10:57:37;;;;;;;30.75;6.03;;;;;;;;;;5081924;28;20513;-71
2024/02/01 11:00:23;;;;;;;24.17;5.78;;;;;;;;;;5104788;28;20077;-71
2024/02/01 11:03:11;;;;;;;19.95;4.35;;;;;;;;;;5098945;28;20023;-71
2024/02/01 11:05:57;;;;;;;31.80;7.38;;;;;;;;;;5095793;28;20405;-71
2024/02/01 11:08:44;;;;;;;22.23;4.45;;;;;;;;;;5084173;28;20381;-71
2024/02/01 11:11:35;;;;;;;27.42;5.63;;;;;;;;;;5109034;28;20485;-72
2024/02/01 11:14:20;;;;;;;;;;;;;;;;;;5095144;28;20045;-71
2024/02/01 11:17:20;;;;;;;11.10;4.45;;;;;;;;;;5109977;28;19938;-72
2024/02/01 11:20:09;;;;;;;28.77;5.72;;;;;;;;;;5084009;28;20103;-72
2024/02/01 11:22:56;;;;;;;18.88;4.43;;;;;;;;;;5108009;28;20034;-71
2024/02/01 11:25:42;;;;;;;28.25;4.07;;;;;;;;;;5081252;28;20385;-72
2024/02/01 11:28:28;;;;;;;18.35;3.72;;;;;;;;;;5084523;28;20021;-72
2024/02/01 11:31:17;;;;;;;19.38;3.08;;;;;;;;;;5088274;28;20028;-71
2024/02/01 11:34:06;;;;;;;15.48;4.18;;;;;;;;;;5081238;28;20020;-71
2024/02/01 11:36:51;;;;;;;29.58;5.03;;;;;;;;;;5068417;28;20048;-71
2024/02/01 11:39:37;;;;;;;21.23;4.30;;;;;;;;;;5085340;28;20020;-71
2024/02/01 11:42:24;;;;;;;35.97;4.38;;;;;;;;;;5080298;28;20024;-71
2024/02/01 11:45:10;;;;;;;17.13;3.70;;;;;;;;;;5080376;28;20016;-71
2024/02/01 11:47:57;;;;;;;17.27;3.30;;;;;;;;;;5096449;28;20090;-71
2024/02/01 11:50:43;;;;;;;12.40;3.13;;;;;;;;;;5080240;28;20020;-71
2024/02/01 11:53:29;;;;;;;18.58;3.78;;;;;;;;;;5060683;28;20055;-71
2024/02/01 11:56:14;;;;;;;23.05;5.50;;;;;;;;;;5060117;28;20021;-71
2024/02/01 11:59:00;;;;;;;21.83;3.10;;;;;;;;;;5060907;28;20032;-71
2024/02/01 12:01:46;;;;;;;25.05;5.45;;;;;;;;;;5059135;28;20016;-71
2024/02/01 12:04:32;;;;;;;25.98;3.75;;;;;;;;;;5068019;28;20016;-71
2024/02/01 12:07:20;;;;;;;16.52;4.10;;;;;;;;;;5095374;28;20401;-71
2024/02/01 12:10:11;;;;;;;14.05;4.03;;;;;;;;;;5081948;28;20023;-71
2024/02/01 12:12:57;;;;;;;22.40;4.60;;;;;;;;;;5094825;28;20030;-71
2024/02/01 12:15:44;;;;;;;17.63;3.22;;;;;;;;;;5080414;28;20401;-71
2024/02/01 12:18:31;;;;;;;20.95;4.03;;;;;;;;;;5080038;28;20092;-71
2024/02/01 12:21:26;;;;;;;18.73;4.78;;;;;;;;;;5078671;28;20107;-71
2024/02/01 12:24:12;;;;;;;25.48;4.15;;;;;;;;;;5095384;28;20020;-72
2024/02/01 12:26:57;;;;;;;26.27;3.10;;;;;;;;;;5093864;28;20020;-71
2024/02/01 12:29:45;;;;;;;12.00;4.05;;;;;;;;;;5079352;28;20481;-71
2024/02/01 12:32:30;;;;;;;16.10;3.45;;;;;;;;;;5095364;28;20052;-71
2024/02/01 12:35:18;;;;;;;18.90;4.43;;;;;;;;;;5092628;28;20020;-72
2024/02/01 12:38:04;;;;;;;11.80;3.22;;;;;;;;;;5071077;28;20497;-72
2024/02/01 12:40:50;;;;;;;14.98;2.92;;;;;;;;;;5059840;28;20032;-71
2024/02/01 12:43:36;;;;;;;17.55;3.22;;;;;;;;;;5060491;28;20028;-71
2024/02/01 12:46:24;;;;;;;15.27;4.95;;;;;;;;;;5094137;28;20451;-71
2024/02/01 12:49:12;;;;;;;16.00;3.38;;;;;;;;;;5064522;28;20016;-71
2024/02/01 12:52:04;;;;;;;9.02;2.60;;;;;;;;;;5080434;28;20030;-71
2024/02/01 12:54:50;;;;;;;23.58;4.05;;;;;;;;;;5060693;28;20107;-71
2024/02/01 12:57:36;;;;;;;21.13;6.05;;;;;;;;;;5073831;28;20027;-71
2024/02/01 13:00:22;;;;;;;15.45;4.03;;;;;;;;;;5075576;28;20030;-71
2024/02/01 13:03:08;;;;;;;26.50;4.10;;;;;;;;;;5094032;28;20023;-71
2024/02/01 13:05:54;;;;;;;22.13;3.63;;;;;;;;;;5079921;28;20030;-72
2024/02/01 13:08:40;;;;;;;30.27;4.78;;;;;;;;;;5094849;28;20026;-72
2024/02/01 13:11:27;;;;;;;9.50;2.78;;;;;;;;;;5093253;28;20374;-72
2024/02/01 13:14:13;;;;;;;11.95;3.50;;;;;;;;;;5080002;28;20020;-71
2024/02/01 13:16:58;;;;;;;19.92;5.63;;;;;;;;;;5078736;28;20086;-71
2024/02/01 13:19:44;;;;;;;18.40;4.15;;;;;;;;;;5093020;28;20032;-70
2024/02/01 13:22:31;;;;;;;15.10;3.97;;;;;;;;;;5093944;28;20067;-72
2024/02/01 13:25:19;;;;;;;12.90;2.55;;;;;;;;;;5111005;28;20055;-71
2024/02/01 13:28:08;;;;;;;17.33;3.63;;;;;;;;;;5103414;28;20054;-72
2024/02/01 13:30:57;;;;;;;16.08;3.15;;;;;;;;;;5071850;28;20028;-71
2024/02/01 13:33:42;;;;;;;18.70;4.00;;;;;;;;;;5090785;28;20019;-72
2024/02/01 13:36:28;;;;;;;15.73;5.93;;;;;;;;;;5093094;28;20035;-72
2024/02/01 13:39:13;;;;;;;15.38;4.15;;;;;;;;;;5091046;28;20058;-72
2024/02/01 13:42:02;;;;;;;57.97;8.65;;;;;;;;;;5072279;28;20401;-71
2024/02/01 13:44:47;;;;;;;14.65;3.25;;;;;;;;;;5057577;28;20029;-72
2024/02/01 13:47:33;;;;;;;21.48;3.80;;;;;;;;;;5072337;28;20028;-71
2024/02/01 13:50:20;;;;;;;15.32;3.75;;;;;;;;;;5091373;28;20048;-72
2024/02/01 13:53:05;;;;;;;16.80;3.80;;;;;;;;;;5076849;28;20114;-71
2024/02/01 13:55:51;;;;;;;20.30;3.90;;;;;;;;;;5091293;28;20547;-71
2024/02/01 13:58:37;;;;;;;20.10;4.75;;;;;;;;;;5092713;28;20028;-71
2024/02/01 14:01:22;;;;;;;15.82;3.95;;;;;;;;;;5082380;28;20023;-71
2024/02/01 14:04:08;;;;;;;14.82;3.35;;;;;;;;;;5097525;28;20063;-72
2024/02/01 14:06:54;;;;;;;28.98;5.80;;;;;;;;;;5097211;28;20054;-71
2024/02/01 14:09:41;;;;;;;19.45;4.57;;;;;;;;;;5101554;28;20048;-72
2024/02/01 14:12:26;;;;;;;16.75;4.40;;;;;;;;;;5075216;28;20102;-71
2024/02/01 14:15:12;;;;;;;24.20;5.57;;;;;;;;;;5082988;28;20107;-71
2024/02/01 14:17:58;;;;;;;15.00;2.97;;;;;;;;;;5059903;28;20278;-72
2024/02/01 14:20:43;;;;;;;24.00;3.72;;;;;;;;;;5085705;28;20448;-72
2024/02/01 14:23:30;;;;;;;13.48;3.15;;;;;;;;;;5085474;28;20097;-73
2024/02/01 14:26:16;;;;;;;13.70;2.90;;;;;;;;;;5072188;28;20039;-73
2024/02/01 14:29:01;;;;;;;13.02;3.40;;;;;;;;;;5089671;28;20034;-74
2024/02/01 14:31:47;;;;;;;10.02;2.67;;;;;;;;;;5081943;28;20032;-73
2024/02/01 14:34:33;;;;;;;11.90;3.55;;;;;;;;;;5080282;28;20032;-74
2024/02/01 14:37:22;;;;;;;14.52;2.75;;;;;;;;;;5079605;28;20028;-74
2024/02/01 14:40:10;;;;;;;15.45;2.83;;;;;;;;;;5079374;28;20041;-74
2024/02/01 14:42:55;;;;;;;7.63;3.00;;;;;;;;;;5082806;28;20043;-74
2024/02/01 14:45:41;;;;;;;9.70;3.33;;;;;;;;;;5084397;28;20020;-74
2024/02/01 14:48:27;;;;;;;12.85;3.90;;;;;;;;;;5082491;28;20024;-75
2024/02/01 14:51:12;;;;;;;11.63;2.63;;;;;;;;;;5083062;28;20024;-74
2024/02/01 14:53:58;;;;;;;12.85;2.20;;;;;;;;;;5066746;28;20382;-73
2024/02/01 14:56:44;;;;;;;9.55;2.50;;;;;;;;;;5081205;28;20033;-72
2024/02/01 14:59:29;;;;;;;8.45;2.95;;;;;;;;;;5079382;28;20024;-73
2024/02/01 15:02:15;;;;;;;9.23;5.50;;;;;;;;;;5062756;28;20512;-72
2024/02/01 15:05:01;;;;;;;18.65;3.35;;;;;;;;;;5080120;28;20073;-75
2024/02/01 15:07:47;;;;;;;14.40;2.78;;;;;;;;;;5068810;28;20064;-75
2024/02/01 15:10:33;;;;;;;7.30;2.60;;;;;;;;;;5083373;28;20161;-75
2024/02/01 15:13:19;;;;;;;17.30;3.83;;;;;;;;;;5066390;28;20036;-75
2024/02/01 15:16:05;;;;;;;18.67;2.75;;;;;;;;;;5069852;28;20028;-74
2024/02/01 15:18:51;;;;;;;17.13;2.85;;;;;;;;;;5061155;28;20073;-75
2024/02/01 15:21:39;;;;;;;13.25;2.45;;;;;;;;;;5073409;28;20109;-73
2024/02/01 15:24:28;;;;;;;12.98;4.53;;;;;;;;;;5079708;28;20165;-75
2024/02/01 15:27:15;;;;;;;14.88;7.55;;;;;;;;;;5062082;28;20382;-76
2024/02/01 15:30:09;;;;;;;12.27;3.83;;;;;;;;;;5088204;28;20106;-74
2024/02/01 15:32:57;;;;;;;15.95;3.80;;;;;;;;;;5089121;28;20032;-76
2024/02/01 15:35:42;;;;;;;26.15;3.60;;;;;;;;;;5088770;28;20031;-74
2024/02/01 15:38:31;;;;;;;11.77;3.42;;;;;;;;;;5069793;28;20040;-75
2024/02/01 15:41:18;;;;;;;26.83;5.95;;;;;;;;;;5098607;22;20071;-72
2024/02/01 15:44:05;;;;;;;33.40;13.73;;;;;;;;;;5082647;28;20044;-73
2024/02/01 15:46:50;;;;;;;161.55;46.65;;;;;;;;;;5078087;28;20035;-73
2024/02/01 15:49:37;;;;;;;26.17;8.35;;;;;;;;;;5088588;28;20016;-72
2024/02/01 15:52:23;;;;;;;26.38;12.55;;;;;;;;;;5085121;28;20017;-72
2024/02/01 15:55:11;;;;;;;27.75;8.35;;;;;;;;;;5081184;28;20409;-73
2024/02/01 15:57:59;;;;;;;16.05;3.58;;;;;;;;;;5070836;28;20028;-71
2024/02/01 16:00:45;;;;;;;12.73;4.07;;;;;;;;;;5086337;28;20024;-71
2024/02/01 16:03:31;;;;;;;24.10;8.82;;;;;;;;;;5087149;28;20039;-71
2024/02/01 16:06:21;;;;;;;14.57;6.05;;;;;;;;;;5084888;28;20396;-71
2024/02/01 16:09:11;;;;;;;27.38;7.28;;;;;;;;;;5082982;28;20537;-71
2024/02/01 16:11:57;;;;;;;17.02;4.65;;;;;;;;;;5092991;28;20031;-71
2024/02/01 16:14:43;;;;;;;8.73;3.67;;;;;;;;;;5083408;28;20051;-71
2024/02/01 16:17:29;;;;;;;21.02;3.85;;;;;;;;;;5091202;28;20493;-71
2024/02/01 16:20:41;;;;;;;22.05;9.93;;;;;;;;;;5091344;28;20031;-71
2024/02/01 16:23:29;;;;;;;21.52;7.57;;;;;;;;;;5091840;28;20039;-71
2024/02/01 16:26:16;;;;;;;24.42;7.78;;;;;;;;;;5093168;28;20027;-72
2024/02/01 16:29:02;;;;;;;17.98;5.35;;;;;;;;;;5091575;28;20073;-71
2024/02/01 16:31:47;;;;;;;22.13;7.60;;;;;;;;;;5092441;28;20026;-71
2024/02/01 16:34:40;;;;;;;18.80;4.63;;;;;;;;;;5092568;28;20169;-71
2024/02/01 16:37:26;;;;;;;28.25;8.35;;;;;;;;;;5084781;28;20020;-71
2024/02/01 16:40:25;;;;;;;19.95;6.30;;;;;;;;;;5078638;28;20073;-72
2024/02/01 16:43:35;;;;;;;24.25;6.88;;;;;;;;;;5071279;28;20119;-71
2024/02/01 16:46:42;;;;;;;36.88;12.32;;;;;;;;;;5058452;28;20401;-71
2024/02/01 16:49:38;;;;;;;20.45;7.35;;;;;;;;;;5073350;28;20077;-70
2024/02/01 16:52:56;;;;;;;33.38;10.02;;;;;;;;;;5072516;28;20184;-71
2024/02/01 16:55:46;;;;;;;15.98;3.63;;;;;;;;;;5081031;28;20055;-71
2024/02/01 16:58:49;;;;;;;14.63;5.00;;;;;;;;;;5070487;28;20024;-71
2024/02/01 17:01:37;;;;;;;29.38;8.05;;;;;;;;;;5071980;28;20048;-72
2024/02/01 17:04:24;;;;;;;11.60;4.25;;;;;;;;;;5090465;28;20032;-71
2024/02/01 17:07:19;;;;;;;32.17;6.95;;;;;;;;;;5104736;28;20035;-71
2024/02/01 17:10:06;;;;;;;14.10;3.33;;;;;;;;;;5089476;28;20012;-71
2024/02/01 17:12:52;;;;;;;19.42;6.82;;;;;;;;;;5084255;28;20410;-71